Time;durP1;ratioP1;P1;durP2;ratioP2;P2;SDS_P1;SDS_P2;PMS_P1;PMS_P2;Temp;Humidity;BMP_temperature;BMP_pressure;BME280_temperature;BME280_humidity;BME280_pressure;Samples;Min_cycle;Max_cycle;Signal;HPM_P1;HPM_P2
2023/09/18 00:00:52;;;;;;;0.80;0.80;;;;;18.20;95547.00;;;;5052902;28;20254;-63
2023/09/18 00:03:20;;;;;;;0.97;0.97;;;;;18.20;95536.00;;;;5053055;28;20207;-64
2023/09/18 00:05:48;;;;;;;0.93;0.80;;;;;18.10;95536.00;;;;5052946;28;20192;-63
2023/09/18 00:08:16;;;;;;;1.03;1.03;;;;;18.00;95532.00;;;;5052993;28;20306;-63
2023/09/18 00:10:47;;;;;;;0.60;0.60;;;;;18.00;95523.00;;;;5052998;28;20204;-63
2023/09/18 00:13:17;;;;;;;0.97;0.97;;;;;17.90;95524.00;;;;5053204;28;20180;-63
2023/09/18 00:15:52;;;;;;;0.70;0.70;;;;;17.90;95521.00;;;;5034907;28;20281;-64
2023/09/18 00:18:21;;;;;;;0.73;0.73;;;;;18.00;95521.00;;;;5052999;28;20185;-64
2023/09/18 00:20:51;;;;;;;0.93;0.93;;;;;17.70;95523.00;;;;5053011;28;20207;-63
2023/09/18 00:23:22;;;;;;;0.67;0.67;;;;;17.60;95524.00;;;;5052815;28;20250;-63
2023/09/18 00:25:52;;;;;;;0.60;0.60;;;;;17.60;95518.00;;;;5052926;28;20185;-63
2023/09/18 00:28:22;;;;;;;0.83;0.83;;;;;17.60;95525.00;;;;5052689;28;20199;-63
2023/09/18 00:30:54;;;;;;;1.10;1.10;;;;;17.60;95528.00;;;;5053042;28;20200;-63
2023/09/18 00:33:22;;;;;;;1.17;1.17;;;;;17.60;95522.00;;;;5035008;28;20654;-63
2023/09/18 00:35:55;;;;;;;0.70;0.70;;;;;17.70;95514.00;;;;5052799;28;20208;-63
2023/09/18 00:38:26;;;;;;;0.60;0.60;;;;;17.70;95514.00;;;;5052907;28;20184;-63
2023/09/18 00:40:53;;;;;;;1.10;1.10;;;;;17.80;95512.00;;;;5052442;28;20184;-63
2023/09/18 00:43:22;;;;;;;1.00;1.00;;;;;17.90;95514.00;;;;5054673;28;20196;-63
2023/09/18 00:45:50;;;;;;;0.70;0.70;;;;;17.90;95509.00;;;;5056364;28;20202;-62
2023/09/18 00:48:19;;;;;;;1.03;1.03;;;;;17.80;95519.00;;;;5038483;28;20539;-63
2023/09/18 00:50:47;;;;;;;2.67;1.20;;;;;17.80;95499.00;;;;5056713;28;20206;-63
2023/09/18 00:53:18;;;;;;;0.80;0.70;;;;;17.90;95488.00;;;;5056584;28;20196;-64
2023/09/18 00:55:46;;;;;;;1.30;1.20;;;;;18.00;95483.00;;;;5038642;28;20515;-63
2023/09/18 00:58:14;;;;;;;0.80;0.80;;;;;18.00;95494.00;;;;5056286;28;20255;-63
2023/09/18 01:00:41;;;;;;;1.20;1.20;;;;;17.90;95494.00;;;;5056663;28;20198;-63
2023/09/18 01:03:10;;;;;;;0.83;0.83;;;;;17.80;95507.00;;;;5056090;28;20699;-63
2023/09/18 01:05:39;;;;;;;0.90;0.90;;;;;17.80;95514.00;;;;5056298;28;20214;-63
2023/09/18 01:08:09;;;;;;;0.57;0.57;;;;;17.60;95503.00;;;;5056049;28;20685;-63
2023/09/18 01:10:48;;;;;;;1.30;1.20;;;;;17.70;95499.00;;;;5055864;28;20275;-63
2023/09/18 01:13:22;;;;;;;0.83;0.83;;;;;17.80;95502.00;;;;5056472;28;20294;-62
2023/09/18 01:15:54;;;;;;;1.20;1.10;;;;;17.90;95510.00;;;;5056313;28;20189;-63
2023/09/18 01:18:22;;;;;;;0.80;0.80;;;;;18.00;95512.00;;;;5056570;28;20570;-63
2023/09/18 01:20:51;;;;;;;0.50;0.50;;;;;18.10;95515.00;;;;5056008;28;20609;-63
2023/09/18 01:23:20;;;;;;;0.60;0.60;;;;;18.10;95534.00;;;;5055655;28;20556;-63
2023/09/18 01:25:47;;;;;;;0.53;0.53;;;;;18.10;95561.00;;;;5056011;28;20196;-63
2023/09/18 01:28:16;;;;;;;0.60;0.60;;;;;17.90;95561.00;;;;5055676;28;20196;-64
2023/09/18 01:30:44;;;;;;;0.87;0.83;;;;;18.10;95559.00;;;;5055591;28;20188;-63
2023/09/18 01:33:12;;;;;;;1.00;1.00;;;;;18.30;95559.00;;;;5055553;28;20669;-63
2023/09/18 01:35:42;;;;;;;1.40;1.30;;;;;18.70;95556.00;;;;5056059;28;20201;-63
2023/09/18 01:38:13;;;;;;;4.13;1.23;;;;;18.90;95551.00;;;;5055407;28;20196;-63
2023/09/18 01:40:42;;;;;;;0.60;0.60;;;;;18.90;95513.00;;;;5055626;28;20207;-64
2023/09/18 01:43:10;;;;;;;0.90;0.90;;;;;18.70;95468.00;;;;5055234;28;20222;-64
2023/09/18 01:45:38;;;;;;;0.60;0.60;;;;;18.70;95433.00;;;;5055143;28;20192;-64
2023/09/18 01:48:06;;;;;;;1.00;1.00;;;;;18.70;95428.00;;;;5055755;28;20195;-64
2023/09/18 01:50:34;;;;;;;1.07;1.07;;;;;18.50;95434.00;;;;5056101;28;20321;-64
2023/09/18 01:53:02;;;;;;;0.70;0.70;;;;;18.40;95421.00;;;;5055136;28;20193;-64
2023/09/18 01:55:29;;;;;;;0.70;0.70;;;;;18.40;95434.00;;;;5054142;28;20286;-64
2023/09/18 01:57:59;;;;;;;0.70;0.70;;;;;17.70;95454.00;;;;5055465;28;20196;-64
2023/09/18 02:00:26;;;;;;;1.13;1.13;;;;;17.30;95472.00;;;;5055366;28;20682;-64
2023/09/18 02:02:53;;;;;;;0.67;0.67;;;;;17.40;95472.00;;;;5054863;28;20698;-64
2023/09/18 02:05:21;;;;;;;1.97;0.93;;;;;17.30;95495.00;;;;5054958;28;20211;-64
2023/09/18 02:07:48;;;;;;;0.50;0.50;;;;;17.00;95508.00;;;;5054880;28;20660;-64
2023/09/18 02:10:16;;;;;;;2.03;1.23;;;;;16.90;95497.00;;;;5054928;28;20192;-62
2023/09/18 02:12:45;;;;;;;4.00;1.83;;;;;17.30;95484.00;;;;5037179;28;20224;-62
2023/09/18 02:15:16;;;;;;;0.60;0.60;;;;;17.30;95479.00;;;;5054952;28;20216;-63
2023/09/18 02:17:45;;;;;;;0.60;0.60;;;;;17.40;95473.00;;;;5055516;28;20238;-63
2023/09/18 02:20:13;;;;;;;0.63;0.63;;;;;17.60;95468.00;;;;5054718;28;20188;-63
2023/09/18 02:22:40;;;;;;;1.00;1.00;;;;;17.70;95472.00;;;;5054828;28;20270;-63
2023/09/18 02:25:08;;;;;;;1.20;1.10;;;;;17.80;95476.00;;;;5054905;28;20220;-63
2023/09/18 02:27:39;;;;;;;0.70;0.70;;;;;17.90;95476.00;;;;5055019;28;20192;-63
2023/09/18 02:30:07;;;;;;;0.93;0.93;;;;;17.90;95465.00;;;;5055081;28;20177;-63
2023/09/18 02:32:36;;;;;;;1.30;1.27;;;;;17.90;95469.00;;;;5054479;28;20188;-63
2023/09/18 02:35:06;;;;;;;0.80;0.80;;;;;18.00;95468.00;;;;5054561;28;20208;-63
2023/09/18 02:37:34;;;;;;;5.60;1.20;;;;;18.10;95464.00;;;;5054502;28;20242;-63
2023/09/18 02:40:02;;;;;;;1.80;1.47;;;;;18.20;95453.00;;;;5054947;28;20194;-63
2023/09/18 02:42:29;;;;;;;0.50;0.50;;;;;18.20;95454.00;;;;5054550;28;20611;-63
2023/09/18 02:44:57;;;;;;;0.80;0.80;;;;;18.30;95440.00;;;;5054633;28;20518;-63
2023/09/18 02:47:26;;;;;;;0.67;0.67;;;;;18.30;95426.00;;;;5054711;28;20651;-63
2023/09/18 02:49:56;;;;;;;0.70;0.70;;;;;18.40;95425.00;;;;5054352;28;20235;-63
2023/09/18 02:52:24;;;;;;;0.77;0.77;;;;;18.30;95421.00;;;;5054327;28;20192;-63
2023/09/18 02:54:54;;;;;;;1.00;1.00;;;;;18.30;95422.00;;;;5054029;28;20212;-64
2023/09/18 02:57:21;;;;;;;1.27;1.00;;;;;18.20;95422.00;;;;5053895;28;20276;-64
2023/09/18 02:59:49;;;;;;;0.50;0.50;;;;;18.20;95416.00;;;;5053946;28;20192;-64
2023/09/18 03:02:17;;;;;;;0.90;0.90;;;;;18.20;95412.00;;;;5053919;28;20231;-64
2023/09/18 03:04:44;;;;;;;0.70;0.70;;;;;18.20;95397.00;;;;5054064;28;20222;-64
2023/09/18 03:07:14;;;;;;;1.93;1.83;;;;;18.10;95419.00;;;;5053532;28;20203;-64
2023/09/18 03:09:41;;;;;;;0.80;0.80;;;;;17.80;95432.00;;;;5054077;28;20545;-64
2023/09/18 03:12:09;;;;;;;1.43;1.27;;;;;17.70;95436.00;;;;5053585;28;20188;-64
2023/09/18 03:14:36;;;;;;;0.60;0.60;;;;;17.60;95434.00;;;;5053542;28;20208;-64
2023/09/18 03:17:04;;;;;;;1.00;1.00;;;;;17.60;95432.00;;;;5054070;28;20382;-64
2023/09/18 03:19:31;;;;;;;1.63;1.53;;;;;17.70;95445.00;;;;5053527;28;20200;-64
2023/09/18 03:21:59;;;;;;;0.90;0.90;;;;;17.70;95468.00;;;;5053390;28;20220;-64
2023/09/18 03:24:27;;;;;;;0.93;0.93;;;;;17.70;95477.00;;;;5053521;28;20212;-64
2023/09/18 03:26:55;;;;;;;0.70;0.70;;;;;17.70;95491.00;;;;5053339;28;20247;-64
2023/09/18 03:29:22;;;;;;;1.03;1.03;;;;;17.80;95497.00;;;;5053393;28;20192;-64
2023/09/18 03:31:49;;;;;;;1.23;1.20;;;;;17.80;95512.00;;;;5054420;28;20192;-64
2023/09/18 03:34:17;;;;;;;0.80;0.80;;;;;17.80;95529.00;;;;5053735;28;20706;-63
2023/09/18 03:36:44;;;;;;;0.50;0.50;;;;;17.80;95559.00;;;;5035455;28;20203;-64
2023/09/18 03:39:12;;;;;;;1.33;1.27;;;;;17.70;95586.00;;;;5053257;28;20199;-64
2023/09/18 03:41:40;;;;;;;0.60;0.60;;;;;17.70;95597.00;;;;5053917;28;20188;-64
2023/09/18 03:44:09;;;;;;;0.60;0.60;;;;;18.10;95599.00;;;;5053019;28;20231;-64
2023/09/18 03:46:37;;;;;;;0.60;0.60;;;;;18.40;95609.00;;;;5053213;28;20583;-63
2023/09/18 03:49:05;;;;;;;0.60;0.60;;;;;18.90;95604.00;;;;5053077;28;20192;-64
2023/09/18 03:51:32;;;;;;;0.73;0.73;;;;;18.90;95613.00;;;;5053094;28;20195;-64
2023/09/18 03:54:01;;;;;;;0.80;0.80;;;;;18.90;95605.00;;;;5053693;28;20212;-63
2023/09/18 03:56:29;;;;;;;1.63;1.53;;;;;18.90;95596.00;;;;5035029;28;20207;-63
2023/09/18 03:59:00;;;;;;;1.10;1.07;;;;;18.80;95579.00;;;;5053364;28;20203;-63
2023/09/18 04:01:28;;;;;;;2.13;0.83;;;;;18.90;95553.00;;;;5053012;28;20234;-63
2023/09/18 04:03:56;;;;;;;1.03;1.03;;;;;18.90;95534.00;;;;5052610;28;20223;-63
2023/09/18 04:06:24;;;;;;;0.90;0.90;;;;;18.90;95538.00;;;;5053122;28;20275;-63
2023/09/18 04:08:52;;;;;;;3.00;1.83;;;;;18.80;95501.00;;;;5053335;28;20200;-64
2023/09/18 04:11:19;;;;;;;1.20;1.10;;;;;19.00;95483.00;;;;5053218;28;20214;-64
2023/09/18 04:13:47;;;;;;;0.43;0.43;;;;;18.90;95458.00;;;;5053323;28;20289;-64
2023/09/18 04:16:17;;;;;;;1.47;1.37;;;;;18.80;95436.00;;;;5053014;28;20250;-64
2023/09/18 04:18:44;;;;;;;1.33;1.00;;;;;18.80;95427.00;;;;5055777;28;20196;-64
2023/09/18 04:21:14;;;;;;;0.63;0.63;;;;;18.90;95448.00;;;;5056827;28;20188;-64
2023/09/18 04:23:41;;;;;;;1.03;1.03;;;;;18.80;95437.00;;;;5056637;28;20275;-64
2023/09/18 04:26:09;;;;;;;0.70;0.70;;;;;18.60;95419.00;;;;5056694;28;20551;-64
2023/09/18 04:28:36;;;;;;;0.90;0.90;;;;;18.70;95413.00;;;;5056876;28;20198;-64
2023/09/18 04:31:05;;;;;;;0.70;0.70;;;;;18.60;95409.00;;;;5056727;28;20199;-64
2023/09/18 04:33:34;;;;;;;1.07;1.03;;;;;18.70;95395.00;;;;5038572;28;20215;-64
2023/09/18 04:36:02;;;;;;;0.77;0.77;;;;;18.60;95378.00;;;;5056475;28;20192;-64
2023/09/18 04:38:29;;;;;;;0.50;0.50;;;;;18.60;95383.00;;;;5056588;28;20202;-64
2023/09/18 04:41:00;;;;;;;1.33;1.23;;;;;18.70;95382.00;;;;5056509;28;20619;-64
2023/09/18 04:43:29;;;;;;;0.73;0.70;;;;;18.70;95368.00;;;;5056326;28;20212;-63
2023/09/18 04:45:56;;;;;;;0.70;0.70;;;;;18.70;95384.00;;;;5056590;28;20668;-62
2023/09/18 04:48:26;;;;;;;1.47;0.80;;;;;18.70;95383.00;;;;5056664;28;20192;-63
2023/09/18 04:50:54;;;;;;;0.83;0.83;;;;;18.70;95376.00;;;;5056530;28;20189;-63
2023/09/18 04:53:22;;;;;;;0.50;0.50;;;;;18.60;95385.00;;;;5056135;28;20604;-63
2023/09/18 04:55:50;;;;;;;0.60;0.60;;;;;18.60;95385.00;;;;5056370;28;20194;-63
2023/09/18 04:58:18;;;;;;;0.60;0.60;;;;;18.50;95389.00;;;;5056623;28;20589;-63
2023/09/18 05:00:46;;;;;;;1.17;1.17;;;;;18.40;95401.00;;;;5056493;28;20195;-63
2023/09/18 05:03:13;;;;;;;1.13;1.13;;;;;18.40;95392.00;;;;5055821;28;20208;-63
2023/09/18 05:05:41;;;;;;;0.50;0.50;;;;;18.50;95414.00;;;;5056146;28;20192;-63
2023/09/18 05:08:10;;;;;;;0.70;0.70;;;;;18.60;95415.00;;;;5056190;28;20192;-63
2023/09/18 05:10:37;;;;;;;0.50;0.50;;;;;18.50;95424.00;;;;5056205;28;20705;-63
2023/09/18 05:13:05;;;;;;;0.57;0.57;;;;;18.60;95439.00;;;;5055784;28;20192;-63
2023/09/18 05:15:33;;;;;;;0.97;0.97;;;;;18.70;95444.00;;;;5055489;28;20212;-63
2023/09/18 05:18:03;;;;;;;0.77;0.77;;;;;18.60;95430.00;;;;5055663;28;20249;-63
2023/09/18 05:20:32;;;;;;;0.77;0.77;;;;;18.50;95431.00;;;;5056156;28;20187;-63
2023/09/18 05:23:00;;;;;;;0.80;0.80;;;;;18.50;95440.00;;;;5056133;28;20212;-63
2023/09/18 05:25:31;;;;;;;0.60;0.60;;;;;18.50;95433.00;;;;5055756;28;20402;-65
2023/09/18 05:28:00;;;;;;;1.67;1.57;;;;;18.40;95442.00;;;;5056101;28;20295;-63
2023/09/18 05:30:29;;;;;;;0.40;0.40;;;;;18.30;95436.00;;;;5055466;28;20267;-63
2023/09/18 05:32:56;;;;;;;0.90;0.90;;;;;18.40;95453.00;;;;5037546;28;20232;-63
2023/09/18 05:35:24;;;;;;;2.30;1.03;;;;;18.50;95449.00;;;;5055907;28;20295;-63
2023/09/18 05:37:52;;;;;;;0.43;0.43;;;;;18.50;95454.00;;;;5055309;28;20215;-63
2023/09/18 05:40:19;;;;;;;0.70;0.70;;;;;18.40;95449.00;;;;5055382;28;20196;-63
2023/09/18 05:42:48;;;;;;;7.67;0.87;;;;;18.30;95436.00;;;;5055390;28;20223;-63
2023/09/18 05:45:18;;;;;;;0.80;0.80;;;;;18.30;95430.00;;;;5055679;28;20322;-63
2023/09/18 05:47:46;;;;;;;1.50;1.40;;;;;18.50;95460.00;;;;5056176;28;20192;-63
2023/09/18 05:50:15;;;;;;;1.03;0.93;;;;;18.40;95446.00;;;;5055345;28;20203;-63
2023/09/18 05:52:43;;;;;;;0.63;0.63;;;;;18.20;95427.00;;;;5055079;28;20196;-63
2023/09/18 05:55:12;;;;;;;0.93;0.93;;;;;18.30;95425.00;;;;5055208;28;20224;-63
2023/09/18 05:57:39;;;;;;;0.80;0.80;;;;;18.30;95434.00;;;;5055444;28;20546;-63
2023/09/18 06:00:12;;;;;;;0.70;0.70;;;;;18.20;95435.00;;;;5054751;28;20295;-63
2023/09/18 06:02:40;;;;;;;1.00;1.00;;;;;18.20;95436.00;;;;5055052;28;20200;-63
2023/09/18 06:05:11;;;;;;;7.83;1.20;;;;;18.30;95434.00;;;;5055301;28;20211;-63
2023/09/18 06:07:38;;;;;;;0.60;0.60;;;;;18.30;95444.00;;;;5056713;28;20626;-66
2023/09/18 06:10:07;;;;;;;3.40;1.03;;;;;18.40;95443.00;;;;5055065;28;20204;-67
2023/09/18 06:12:34;;;;;;;0.93;0.70;;;;;18.60;95448.00;;;;5054838;28;20649;-65
2023/09/18 06:15:01;;;;;;;0.60;0.60;;;;;18.60;95461.00;;;;5054898;28;20235;-65
2023/09/18 06:17:33;;;;;;;0.70;0.70;;;;;18.50;95470.00;;;;5055133;28;20200;-65
2023/09/18 06:20:00;;;;;;;1.10;1.10;;;;;18.40;95477.00;;;;5054832;28;20195;-66
2023/09/18 06:22:28;;;;;;;1.47;1.40;;;;;18.20;95482.00;;;;5054692;28;20215;-63
2023/09/18 06:24:57;;;;;;;0.50;0.50;;;;;18.30;95480.00;;;;5054194;28;20752;-63
2023/09/18 06:27:25;;;;;;;0.60;0.60;;;;;18.30;95493.00;;;;5054414;28;20189;-63
2023/09/18 06:29:52;;;;;;;0.90;0.90;;;;;18.30;95482.00;;;;5054602;28;20279;-63
2023/09/18 06:32:20;;;;;;;1.30;0.93;;;;;18.40;95475.00;;;;5054179;28;20625;-63
2023/09/18 06:34:49;;;;;;;0.80;0.80;;;;;18.50;95476.00;;;;5054611;28;20238;-63
2023/09/18 06:37:18;;;;;;;0.90;0.90;;;;;18.40;95470.00;;;;5054137;28;20192;-63
2023/09/18 06:39:45;;;;;;;0.93;0.93;;;;;18.30;95470.00;;;;5054082;28;20188;-63
2023/09/18 06:42:13;;;;;;;0.63;0.63;;;;;18.50;95460.00;;;;5054054;28;20192;-63
2023/09/18 06:44:40;;;;;;;0.50;0.50;;;;;18.70;95464.00;;;;5054557;28;20234;-63
2023/09/18 06:47:08;;;;;;;0.77;0.77;;;;;18.70;95486.00;;;;5054246;28;20227;-63
2023/09/18 06:49:36;;;;;;;0.60;0.60;;;;;18.50;95484.00;;;;5053821;28;20192;-63
2023/09/18 06:52:06;;;;;;;0.83;0.73;;;;;18.40;95483.00;;;;5054124;28;20199;-63
2023/09/18 06:54:33;;;;;;;0.77;0.77;;;;;18.70;95474.00;;;;5053806;28;20227;-63
2023/09/18 06:57:01;;;;;;;8.47;0.90;;;;;18.60;95475.00;;;;5053659;28;20215;-63
2023/09/18 06:59:29;;;;;;;0.63;0.63;;;;;18.60;95489.00;;;;5054524;28;20279;-63
2023/09/18 07:01:58;;;;;;;0.50;0.50;;;;;18.50;95490.00;;;;5053775;28;20203;-63
2023/09/18 07:04:26;;;;;;;0.73;0.73;;;;;18.40;95493.00;;;;5053960;28;20298;-63
2023/09/18 07:06:53;;;;;;;0.93;0.93;;;;;18.60;95486.00;;;;5053604;28;20206;-63
2023/09/18 07:09:23;;;;;;;0.90;0.90;;;;;18.80;95491.00;;;;5053774;28;20223;-64
2023/09/18 07:11:50;;;;;;;0.90;0.90;;;;;18.60;95504.00;;;;5053995;28;20590;-64
2023/09/18 07:14:18;;;;;;;0.60;0.60;;;;;18.60;95492.00;;;;5053371;28;20212;-63
2023/09/18 07:16:45;;;;;;;0.47;0.47;;;;;18.50;95512.00;;;;5053383;28;20199;-63
2023/09/18 07:19:16;;;;;;;0.57;0.57;;;;;18.60;95500.00;;;;5053687;28;20322;-63
2023/09/18 07:21:46;;;;;;;0.50;0.50;;;;;18.50;95518.00;;;;5053745;28;20191;-63
2023/09/18 07:24:16;;;;;;;0.53;0.53;;;;;18.50;95514.00;;;;5053475;28;20361;-63
2023/09/18 07:26:47;;;;;;;0.40;0.40;;;;;18.30;95513.00;;;;5054113;28;20211;-63
2023/09/18 07:29:15;;;;;;;0.50;0.50;;;;;18.30;95502.00;;;;5035580;28;20643;-63
2023/09/18 07:31:43;;;;;;;0.50;0.50;;;;;18.20;95495.00;;;;5053522;28;20274;-63
2023/09/18 07:34:10;;;;;;;0.40;0.40;;;;;18.10;95503.00;;;;5053440;28;20560;-63
2023/09/18 07:36:38;;;;;;;3.40;1.13;;;;;18.30;95497.00;;;;5053585;28;20340;-63
2023/09/18 07:39:06;;;;;;;0.70;0.70;;;;;18.30;95515.00;;;;5053356;28;20277;-63
2023/09/18 07:41:33;;;;;;;0.43;0.43;;;;;18.50;95512.00;;;;5053106;28;20246;-63
2023/09/18 07:44:02;;;;;;;0.50;0.50;;;;;18.50;95502.00;;;;5053070;28;20234;-63
2023/09/18 07:46:30;;;;;;;0.77;0.77;;;;;18.50;95519.00;;;;5053365;28;20227;-63
2023/09/18 07:48:58;;;;;;;0.50;0.50;;;;;18.40;95518.00;;;;5053895;28;20216;-63
2023/09/18 07:51:25;;;;;;;0.40;0.40;;;;;18.60;95520.00;;;;5053435;28;20188;-63
2023/09/18 07:53:53;;;;;;;0.60;0.60;;;;;18.30;95530.00;;;;5052849;28;20214;-63
2023/09/18 07:56:21;;;;;;;0.50;0.50;;;;;18.30;95548.00;;;;5053679;28;20541;-63
2023/09/18 07:58:48;;;;;;;0.70;0.70;;;;;18.50;95544.00;;;;5053426;28;20241;-63
2023/09/18 08:01:18;;;;;;;0.60;0.60;;;;;18.60;95537.00;;;;5034996;28;20192;-63
2023/09/18 08:03:45;;;;;;;0.57;0.57;;;;;18.50;95551.00;;;;5052636;28;20568;-63
2023/09/18 08:06:15;;;;;;;0.40;0.40;;;;;18.40;95575.00;;;;5034839;28;20219;-63
2023/09/18 08:08:43;;;;;;;0.60;0.60;;;;;18.40;95583.00;;;;5053060;28;20192;-64
2023/09/18 08:11:10;;;;;;;0.83;0.83;;;;;18.30;95575.00;;;;5035188;28;20192;-63
2023/09/18 08:13:38;;;;;;;13.03;0.73;;;;;18.20;95573.00;;;;5053060;28;20212;-63
2023/09/18 08:16:08;;;;;;;0.50;0.50;;;;;18.40;95573.00;;;;5053391;28;20195;-63
2023/09/18 08:18:40;;;;;;;0.57;0.57;;;;;18.10;95586.00;;;;5053165;28;20189;-63
2023/09/18 08:21:09;;;;;;;1.13;1.13;;;;;18.00;95602.00;;;;5053135;28;20184;-63
2023/09/18 08:23:38;;;;;;;7.20;1.07;;;;;17.80;95588.00;;;;5035022;28;20235;-64
2023/09/18 08:26:05;;;;;;;0.60;0.60;;;;;17.90;95574.00;;;;5052776;28;20192;-64
2023/09/18 08:28:35;;;;;;;0.80;0.80;;;;;17.90;95581.00;;;;5053283;28;20271;-64
2023/09/18 08:31:03;;;;;;;0.67;0.67;;;;;17.90;95567.00;;;;5053102;28;20188;-64
2023/09/18 08:33:30;;;;;;;0.40;0.40;;;;;17.90;95563.00;;;;5052952;28;20196;-64
2023/09/18 08:36:00;;;;;;;1.17;1.17;;;;;17.90;95567.00;;;;5052388;28;20220;-64
2023/09/18 08:38:27;;;;;;;0.50;0.50;;;;;17.80;95568.00;;;;5052544;28;20227;-64
2023/09/18 08:40:56;;;;;;;0.50;0.50;;;;;17.80;95555.00;;;;5052601;28;20200;-63
2023/09/18 08:43:24;;;;;;;0.50;0.50;;;;;17.90;95556.00;;;;5052259;28;20188;-63
2023/09/18 08:46:02;;;;;;;1.03;0.90;;;;;18.00;95557.00;;;;5052779;28;20226;-63
2023/09/18 08:48:34;;;;;;;0.70;0.70;;;;;17.80;95534.00;;;;5052406;28;20702;-63
2023/09/18 08:51:05;;;;;;;3.90;0.83;;;;;17.90;95549.00;;;;5052906;28;20700;-63
2023/09/18 08:53:33;;;;;;;0.60;0.60;;;;;17.80;95558.00;;;;5034489;28;20238;-63
2023/09/18 08:56:03;;;;;;;0.63;0.63;;;;;17.80;95572.00;;;;5053332;28;20197;-66
2023/09/18 08:58:35;;;;;;;0.50;0.50;;;;;17.50;95595.00;;;;5052956;28;20245;-64
2023/09/18 09:01:09;;;;;;;0.50;0.50;;;;;17.60;95608.00;;;;5052372;28;20230;-64
2023/09/18 09:03:38;;;;;;;0.90;0.90;;;;;17.40;95636.00;;;;5053083;28;20223;-64
2023/09/18 09:06:08;;;;;;;0.70;0.70;;;;;17.30;95626.00;;;;5056044;28;20195;-64
2023/09/18 09:08:36;;;;;;;0.40;0.40;;;;;17.20;95630.00;;;;5038005;28;20196;-64
2023/09/18 09:11:04;;;;;;;0.50;0.50;;;;;17.30;95619.00;;;;5055694;28;20203;-64
2023/09/18 09:13:32;;;;;;;0.60;0.60;;;;;17.40;95620.00;;;;5055972;28;20196;-64
2023/09/18 09:16:00;;;;;;;0.53;0.53;;;;;17.20;95604.00;;;;5056037;28;20634;-64
2023/09/18 09:18:31;;;;;;;0.50;0.50;;;;;17.30;95592.00;;;;5055838;28;20707;-64
2023/09/18 09:21:01;;;;;;;1.00;1.00;;;;;17.60;95595.00;;;;5055790;28;20267;-64
2023/09/18 09:23:48;;;;;;;0.90;0.90;;;;;17.50;95573.00;;;;5055780;28;20207;-64
2023/09/18 09:26:17;;;;;;;0.50;0.50;;;;;17.60;95570.00;;;;5055627;28;20717;-64
2023/09/18 09:28:46;;;;;;;0.50;0.50;;;;;17.80;95568.00;;;;5055617;28;20196;-64
2023/09/18 09:31:28;;;;;;;0.60;0.60;;;;;17.60;95569.00;;;;5055522;28;20555;-64
2023/09/18 09:33:56;;;;;;;0.87;0.87;;;;;17.70;95566.00;;;;5055579;28;20208;-64
2023/09/18 09:36:27;;;;;;;0.80;0.80;;;;;17.60;95582.00;;;;5055449;28;20242;-64
2023/09/18 09:38:59;;;;;;;0.67;0.67;;;;;17.70;95566.00;;;;5056033;28;20188;-64
2023/09/18 09:41:27;;;;;;;0.57;0.57;;;;;17.60;95567.00;;;;5055287;28;20215;-63
2023/09/18 09:43:56;;;;;;;0.40;0.40;;;;;17.60;95569.00;;;;5055269;28;20296;-63
2023/09/18 09:46:27;;;;;;;0.40;0.40;;;;;17.70;95550.00;;;;5055685;28;20203;-64
2023/09/18 09:49:02;;;;;;;0.80;0.80;;;;;17.70;95552.00;;;;5055276;28;20188;-63
2023/09/18 09:51:30;;;;;;;0.50;0.50;;;;;17.80;95549.00;;;;5055142;28;20188;-63
2023/09/18 09:54:00;;;;;;;1.07;1.07;;;;;17.80;95534.00;;;;5055233;28;20212;-63
2023/09/18 09:56:44;;;;;;;1.07;1.07;;;;;18.10;95560.00;;;;5055274;28;20180;-63
2023/09/18 09:59:14;;;;;;;1.53;1.23;;;;;18.10;95597.00;;;;5054904;28;20625;-63
2023/09/18 10:01:44;;;;;;;0.60;0.60;;;;;17.90;95586.00;;;;5055093;28;20204;-63
2023/09/18 10:04:16;;;;;;;0.60;0.60;;;;;17.80;95589.00;;;;5054831;28;20338;-63
2023/09/18 10:06:48;;;;;;;1.23;1.23;;;;;17.90;95581.00;;;;5055232;28;20275;-63
2023/09/18 10:09:19;;;;;;;0.47;0.47;;;;;18.10;95584.00;;;;5055783;28;20192;-63
2023/09/18 10:11:51;;;;;;;0.50;0.50;;;;;18.00;95572.00;;;;5055137;28;20185;-63
2023/09/18 10:14:22;;;;;;;0.63;0.63;;;;;17.90;95568.00;;;;5036709;28;20212;-63
2023/09/18 10:16:54;;;;;;;0.60;0.60;;;;;18.00;95585.00;;;;5054401;28;20177;-62
2023/09/18 10:19:33;;;;;;;0.43;0.43;;;;;18.00;95592.00;;;;5054915;28;20184;-63
2023/09/18 10:24:41;;;;;;;0.70;0.70;;;;;18.20;95596.00;;;;5886856;22;20238;-57
2023/09/18 10:27:09;;;;;;;1.43;1.33;;;;;18.30;95605.00;;;;5054551;28;20200;-59
2023/09/18 10:29:38;;;;;;;0.50;0.50;;;;;18.40;95614.00;;;;5054593;28;20609;-57
2023/09/18 10:32:08;;;;;;;0.50;0.50;;;;;18.20;95615.00;;;;5054338;28;20200;-58
2023/09/18 10:34:36;;;;;;;0.60;0.60;;;;;18.30;95616.00;;;;5054256;28;20204;-57
2023/09/18 10:37:09;;;;;;;1.27;1.23;;;;;18.30;95619.00;;;;5054228;28;20184;-57
2023/09/18 10:39:39;;;;;;;0.80;0.80;;;;;18.20;95598.00;;;;5054629;28;20180;-58
2023/09/18 10:42:09;;;;;;;0.60;0.60;;;;;18.20;95597.00;;;;5054654;28;20271;-59
2023/09/18 10:44:39;;;;;;;0.43;0.43;;;;;17.90;95579.00;;;;5054144;28;20224;-59
2023/09/18 10:47:09;;;;;;;0.50;0.50;;;;;18.00;95564.00;;;;5054258;28;20642;-59
2023/09/18 10:49:38;;;;;;;0.60;0.60;;;;;17.90;95572.00;;;;5053941;28;20192;-59
2023/09/18 10:52:06;;;;;;;1.10;0.87;;;;;17.90;95576.00;;;;5054028;28;20195;-59
2023/09/18 10:54:37;;;;;;;3.50;1.43;;;;;18.10;95576.00;;;;5053795;28;20223;-59
2023/09/18 10:57:07;;;;;;;0.93;0.93;;;;;18.10;95560.00;;;;5054279;28;20271;-59
2023/09/18 10:59:34;;;;;;;0.40;0.40;;;;;18.20;95554.00;;;;5053784;28;20192;-59
2023/09/18 11:02:05;;;;;;;0.50;0.50;;;;;18.30;95552.00;;;;5054026;28;20303;-59
2023/09/18 11:04:33;;;;;;;0.67;0.67;;;;;18.30;95541.00;;;;5053625;28;20258;-58
2023/09/18 11:07:09;;;;;;;0.50;0.50;;;;;18.30;95572.00;;;;5053667;28;20195;-59
2023/09/18 11:09:44;;;;;;;0.57;0.57;;;;;18.50;95578.00;;;;5053867;28;20267;-59
2023/09/18 11:12:15;;;;;;;0.80;0.80;;;;;18.30;95582.00;;;;5053558;28;20198;-59
2023/09/18 11:14:49;;;;;;;0.67;0.67;;;;;18.30;95590.00;;;;5053501;28;20223;-59
2023/09/18 11:17:36;;;;;;;0.43;0.43;;;;;18.10;95585.00;;;;5053533;28;20187;-58
2023/09/18 11:20:18;;;;;;;0.57;0.57;;;;;18.30;95586.00;;;;5053579;28;20200;-58
2023/09/18 11:22:52;;;;;;;0.73;0.73;;;;;18.20;95599.00;;;;5035494;28;20188;-58
2023/09/18 11:25:37;;;;;;;0.67;0.67;;;;;18.40;95597.00;;;;5053465;28;20227;-58
2023/09/18 11:28:08;;;;;;;2.57;1.20;;;;;18.40;95602.00;;;;5052334;28;20259;-59
2023/09/18 11:30:36;;;;;;;0.53;0.53;;;;;18.20;95605.00;;;;5052713;28;20185;-58
2023/09/18 11:33:06;;;;;;;0.57;0.57;;;;;18.20;95599.00;;;;5052666;28;20263;-58
2023/09/18 11:35:34;;;;;;;0.70;0.70;;;;;18.20;95606.00;;;;5035119;28;20262;-58
2023/09/18 11:38:09;;;;;;;0.63;0.63;;;;;18.40;95597.00;;;;5053005;28;20202;-58
2023/09/18 11:40:39;;;;;;;0.70;0.70;;;;;18.20;95604.00;;;;5052566;28;20180;-60
2023/09/18 11:43:26;;;;;;;0.77;0.73;;;;;18.20;95621.00;;;;5052713;28;20192;-59
2023/09/18 11:45:55;;;;;;;0.50;0.50;;;;;18.20;95617.00;;;;5034475;28;20281;-59
2023/09/18 11:48:25;;;;;;;0.50;0.50;;;;;18.20;95625.00;;;;5034480;28;20210;-58
2023/09/18 11:50:54;;;;;;;0.73;0.73;;;;;18.30;95627.00;;;;5034533;28;20203;-58
2023/09/18 11:53:24;;;;;;;0.90;0.90;;;;;18.10;95617.00;;;;5052281;28;20199;-58
2023/09/18 11:55:52;;;;;;;2.00;1.30;;;;;18.30;95611.00;;;;5052501;28;20257;-59
2023/09/18 11:58:23;;;;;;;0.90;0.90;;;;;18.60;95601.00;;;;5052601;28;20581;-59
2023/09/18 12:00:54;;;;;;;1.90;1.03;;;;;18.40;95600.00;;;;5052708;28;20177;-58
2023/09/18 12:03:26;;;;;;;0.50;0.50;;;;;18.60;95595.00;;;;5052277;28;20172;-58
2023/09/18 12:05:56;;;;;;;0.70;0.70;;;;;18.90;95599.00;;;;5034159;28;20232;-58
2023/09/18 12:08:26;;;;;;;0.50;0.50;;;;;18.70;95593.00;;;;5052861;28;20598;-58
2023/09/18 12:10:54;;;;;;;2.77;1.03;;;;;18.90;95593.00;;;;5052241;28;20192;-59
2023/09/18 12:13:22;;;;;;;1.10;1.07;;;;;19.10;95578.00;;;;5051966;28;20220;-59
2023/09/18 12:15:56;;;;;;;0.50;0.50;;;;;18.90;95586.00;;;;5051977;28;20218;-59
2023/09/18 12:18:24;;;;;;;0.43;0.43;;;;;19.00;95575.00;;;;5052076;28;20310;-59
2023/09/18 12:20:52;;;;;;;0.63;0.63;;;;;19.20;95580.00;;;;5034107;28;20608;-59
2023/09/18 12:23:20;;;;;;;0.53;0.53;;;;;19.30;95576.00;;;;5052107;28;20658;-59
2023/09/18 12:25:50;;;;;;;0.80;0.80;;;;;19.00;95570.00;;;;5012787;28;1125973;-59
2023/09/18 12:28:18;;;;;;;0.70;0.70;;;;;18.90;95569.00;;;;5052718;28;20192;-58
2023/09/18 12:30:47;;;;;;;0.97;0.97;;;;;19.20;95577.00;;;;5052078;28;20252;-59